sensor_id;sensor_type;location;lat;lon;timestamp;P1;durP1;ratioP1;P2;durP2;ratioP2
86172;SDS011;76822;46.880;8.642;2024-02-26T00:01:19;0.50;;;0.50;;
86172;SDS011;76822;46.880;8.642;2024-02-26T00:04:39;0.60;;;0.60;;
86172;SDS011;76822;46.880;8.642;2024-02-26T00:08:00;0.50;;;0.50;;
86172;SDS011;76822;46.880;8.642;2024-02-26T00:11:20;0.50;;;0.50;;
86172;SDS011;76822;46.880;8.642;2024-02-26T00:14:40;0.50;;;0.50;;
86172;SDS011;76822;46.880;8.642;2024-02-26T00:18:01;0.50;;;0.50;;
86172;SDS011;76822;46.880;8.642;2024-02-26T00:21:21;0.50;;;0.50;;
86172;SDS011;76822;46.880;8.642;2024-02-26T00:24:42;0.50;;;0.50;;
86172;SDS011;76822;46.880;8.642;2024-02-26T00:28:02;0.57;;;0.57;;
86172;SDS011;76822;46.880;8.642;2024-02-26T00:31:23;0.50;;;0.50;;
86172;SDS011;76822;46.880;8.642;2024-02-26T00:34:44;0.50;;;0.50;;
86172;SDS011;76822;46.880;8.642;2024-02-26T00:38:04;0.40;;;0.40;;
86172;SDS011;76822;46.880;8.642;2024-02-26T00:41:24;1.43;;;0.80;;
86172;SDS011;76822;46.880;8.642;2024-02-26T00:44:45;0.60;;;0.60;;
86172;SDS011;76822;46.880;8.642;2024-02-26T00:48:05;0.50;;;0.50;;
86172;SDS011;76822;46.880;8.642;2024-02-26T00:51:27;1.00;;;0.50;;
86172;SDS011;76822;46.880;8.642;2024-02-26T00:54:47;0.60;;;0.60;;
86172;SDS011;76822;46.880;8.642;2024-02-26T00:58:09;0.50;;;0.50;;
86172;SDS011;76822;46.880;8.642;2024-02-26T01:01:29;0.40;;;0.40;;
86172;SDS011;76822;46.880;8.642;2024-02-26T01:04:49;0.50;;;0.50;;
86172;SDS011;76822;46.880;8.642;2024-02-26T01:08:10;0.50;;;0.50;;
86172;SDS011;76822;46.880;8.642;2024-02-26T01:11:30;0.40;;;0.40;;
86172;SDS011;76822;46.880;8.642;2024-02-26T01:14:50;0.50;;;0.50;;
86172;SDS011;76822;46.880;8.642;2024-02-26T01:18:12;0.50;;;0.50;;
86172;SDS011;76822;46.880;8.642;2024-02-26T01:21:32;0.40;;;0.40;;
86172;SDS011;76822;46.880;8.642;2024-02-26T01:24:52;0.50;;;0.50;;
86172;SDS011;76822;46.880;8.642;2024-02-26T01:28:13;0.60;;;0.60;;
86172;SDS011;76822;46.880;8.642;2024-02-26T01:31:33;0.40;;;0.40;;
86172;SDS011;76822;46.880;8.642;2024-02-26T01:34:54;0.47;;;0.47;;
86172;SDS011;76822;46.880;8.642;2024-02-26T01:38:14;0.40;;;0.40;;
86172;SDS011;76822;46.880;8.642;2024-02-26T01:41:35;0.50;;;0.50;;
86172;SDS011;76822;46.880;8.642;2024-02-26T01:44:55;0.47;;;0.47;;
86172;SDS011;76822;46.880;8.642;2024-02-26T01:48:16;0.50;;;0.50;;
86172;SDS011;76822;46.880;8.642;2024-02-26T01:51:37;0.83;;;0.50;;
86172;SDS011;76822;46.880;8.642;2024-02-26T01:55:00;0.40;;;0.40;;
86172;SDS011;76822;46.880;8.642;2024-02-26T01:58:22;0.40;;;0.40;;
86172;SDS011;76822;46.880;8.642;2024-02-26T02:01:44;0.50;;;0.50;;
86172;SDS011;76822;46.880;8.642;2024-02-26T02:05:07;0.50;;;0.50;;
86172;SDS011;76822;46.880;8.642;2024-02-26T02:08:29;0.40;;;0.40;;
86172;SDS011;76822;46.880;8.642;2024-02-26T02:11:49;0.60;;;0.60;;
86172;SDS011;76822;46.880;8.642;2024-02-26T02:15:10;0.50;;;0.50;;
86172;SDS011;76822;46.880;8.642;2024-02-26T02:18:31;0.57;;;0.57;;
86172;SDS011;76822;46.880;8.642;2024-02-26T02:21:51;0.40;;;0.40;;
86172;SDS011;76822;46.880;8.642;2024-02-26T02:25:11;0.50;;;0.50;;
86172;SDS011;76822;46.880;8.642;2024-02-26T02:28:32;0.50;;;0.50;;
86172;SDS011;76822;46.880;8.642;2024-02-26T02:31:52;0.50;;;0.50;;
86172;SDS011;76822;46.880;8.642;2024-02-26T02:35:13;0.57;;;0.57;;
86172;SDS011;76822;46.880;8.642;2024-02-26T02:38:34;0.80;;;0.60;;
86172;SDS011;76822;46.880;8.642;2024-02-26T02:41:54;0.50;;;0.50;;
86172;SDS011;76822;46.880;8.642;2024-02-26T02:45:15;0.50;;;0.50;;
86172;SDS011;76822;46.880;8.642;2024-02-26T02:48:35;0.53;;;0.53;;
86172;SDS011;76822;46.880;8.642;2024-02-26T02:51:55;0.50;;;0.50;;
86172;SDS011;76822;46.880;8.642;2024-02-26T02:55:17;0.60;;;0.60;;
86172;SDS011;76822;46.880;8.642;2024-02-26T02:58:38;0.50;;;0.50;;
86172;SDS011;76822;46.880;8.642;2024-02-26T03:01:58;0.50;;;0.50;;
86172;SDS011;76822;46.880;8.642;2024-02-26T03:05:19;0.70;;;0.70;;
86172;SDS011;76822;46.880;8.642;2024-02-26T03:08:39;0.67;;;0.67;;
86172;SDS011;76822;46.880;8.642;2024-02-26T03:12:01;0.50;;;0.50;;
86172;SDS011;76822;46.880;8.642;2024-02-26T03:15:22;0.67;;;0.67;;
86172;SDS011;76822;46.880;8.642;2024-02-26T03:18:42;0.70;;;0.70;;
86172;SDS011;76822;46.880;8.642;2024-02-26T03:22:02;0.50;;;0.50;;
86172;SDS011;76822;46.880;8.642;2024-02-26T03:25:23;0.50;;;0.50;;
86172;SDS011;76822;46.880;8.642;2024-02-26T03:28:43;0.50;;;0.50;;
86172;SDS011;76822;46.880;8.642;2024-02-26T03:32:04;0.50;;;0.50;;
86172;SDS011;76822;46.880;8.642;2024-02-26T03:35:25;0.50;;;0.50;;
86172;SDS011;76822;46.880;8.642;2024-02-26T03:38:45;0.50;;;0.50;;
86172;SDS011;76822;46.880;8.642;2024-02-26T03:42:06;0.60;;;0.60;;
86172;SDS011;76822;46.880;8.642;2024-02-26T03:45:26;0.50;;;0.50;;
86172;SDS011;76822;46.880;8.642;2024-02-26T03:48:47;0.47;;;0.47;;
86172;SDS011;76822;46.880;8.642;2024-02-26T03:52:07;0.50;;;0.50;;
86172;SDS011;76822;46.880;8.642;2024-02-26T03:55:27;0.60;;;0.60;;
86172;SDS011;76822;46.880;8.642;2024-02-26T03:58:48;0.60;;;0.60;;
86172;SDS011;76822;46.880;8.642;2024-02-26T04:02:08;0.60;;;0.60;;
86172;SDS011;76822;46.880;8.642;2024-02-26T04:05:29;0.77;;;0.77;;
86172;SDS011;76822;46.880;8.642;2024-02-26T04:08:50;0.70;;;0.70;;
86172;SDS011;76822;46.880;8.642;2024-02-26T04:12:10;0.67;;;0.67;;
86172;SDS011;76822;46.880;8.642;2024-02-26T04:15:31;0.60;;;0.60;;
86172;SDS011;76822;46.880;8.642;2024-02-26T04:18:52;0.60;;;0.60;;
86172;SDS011;76822;46.880;8.642;2024-02-26T04:22:13;0.67;;;0.67;;
86172;SDS011;76822;46.880;8.642;2024-02-26T04:25:33;0.60;;;0.60;;
86172;SDS011;76822;46.880;8.642;2024-02-26T04:28:54;0.60;;;0.60;;
86172;SDS011;76822;46.880;8.642;2024-02-26T04:32:14;0.70;;;0.70;;
86172;SDS011;76822;46.880;8.642;2024-02-26T04:35:35;0.80;;;0.80;;
86172;SDS011;76822;46.880;8.642;2024-02-26T04:38:55;0.80;;;0.80;;
86172;SDS011;76822;46.880;8.642;2024-02-26T04:42:16;0.60;;;0.60;;
86172;SDS011;76822;46.880;8.642;2024-02-26T04:45:36;1.10;;;1.10;;
86172;SDS011;76822;46.880;8.642;2024-02-26T04:48:57;0.70;;;0.70;;
86172;SDS011;76822;46.880;8.642;2024-02-26T04:52:18;0.83;;;0.83;;
86172;SDS011;76822;46.880;8.642;2024-02-26T04:55:39;0.70;;;0.70;;
86172;SDS011;76822;46.880;8.642;2024-02-26T04:58:59;1.00;;;1.00;;
86172;SDS011;76822;46.880;8.642;2024-02-26T05:02:20;0.70;;;0.70;;
86172;SDS011;76822;46.880;8.642;2024-02-26T05:05:40;0.60;;;0.60;;
86172;SDS011;76822;46.880;8.642;2024-02-26T05:09:00;0.93;;;0.70;;
86172;SDS011;76822;46.880;8.642;2024-02-26T05:12:21;0.97;;;0.70;;
86172;SDS011;76822;46.880;8.642;2024-02-26T05:15:41;0.50;;;0.50;;
86172;SDS011;76822;46.880;8.642;2024-02-26T05:19:02;0.60;;;0.60;;
86172;SDS011;76822;46.880;8.642;2024-02-26T05:22:23;0.60;;;0.60;;
86172;SDS011;76822;46.880;8.642;2024-02-26T05:25:44;0.60;;;0.60;;
86172;SDS011;76822;46.880;8.642;2024-02-26T05:29:07;0.60;;;0.60;;
86172;SDS011;76822;46.880;8.642;2024-02-26T05:32:27;0.50;;;0.50;;
86172;SDS011;76822;46.880;8.642;2024-02-26T05:35:47;0.50;;;0.50;;
86172;SDS011;76822;46.880;8.642;2024-02-26T05:39:08;0.50;;;0.50;;
86172;SDS011;76822;46.880;8.642;2024-02-26T05:42:31;0.50;;;0.50;;
86172;SDS011;76822;46.880;8.642;2024-02-26T05:45:51;0.53;;;0.53;;
86172;SDS011;76822;46.880;8.642;2024-02-26T05:49:12;0.60;;;0.60;;
86172;SDS011;76822;46.880;8.642;2024-02-26T05:52:32;0.73;;;0.70;;
86172;SDS011;76822;46.880;8.642;2024-02-26T05:55:53;0.50;;;0.50;;
86172;SDS011;76822;46.880;8.642;2024-02-26T05:59:13;0.70;;;0.70;;
86172;SDS011;76822;46.880;8.642;2024-02-26T06:02:35;0.57;;;0.57;;
86172;SDS011;76822;46.880;8.642;2024-02-26T06:05:55;0.60;;;0.60;;
86172;SDS011;76822;46.880;8.642;2024-02-26T06:09:16;0.70;;;0.70;;
86172;SDS011;76822;46.880;8.642;2024-02-26T06:12:36;0.60;;;0.60;;
86172;SDS011;76822;46.880;8.642;2024-02-26T06:15:57;0.60;;;0.60;;
86172;SDS011;76822;46.880;8.642;2024-02-26T06:19:17;0.70;;;0.70;;
86172;SDS011;76822;46.880;8.642;2024-02-26T06:22:39;0.83;;;0.70;;
86172;SDS011;76822;46.880;8.642;2024-02-26T06:26:00;0.50;;;0.50;;
86172;SDS011;76822;46.880;8.642;2024-02-26T06:29:21;0.57;;;0.57;;
86172;SDS011;76822;46.880;8.642;2024-02-26T06:32:41;0.50;;;0.50;;
86172;SDS011;76822;46.880;8.642;2024-02-26T06:36:01;0.60;;;0.60;;
86172;SDS011;76822;46.880;8.642;2024-02-26T06:39:22;2.97;;;0.60;;
86172;SDS011;76822;46.880;8.642;2024-02-26T06:42:42;0.60;;;0.60;;
86172;SDS011;76822;46.880;8.642;2024-02-26T06:46:03;0.50;;;0.50;;
86172;SDS011;76822;46.880;8.642;2024-02-26T06:49:26;0.50;;;0.50;;
86172;SDS011;76822;46.880;8.642;2024-02-26T06:52:47;0.60;;;0.60;;
86172;SDS011;76822;46.880;8.642;2024-02-26T06:56:07;0.60;;;0.60;;
86172;SDS011;76822;46.880;8.642;2024-02-26T06:59:28;0.50;;;0.50;;
86172;SDS011;76822;46.880;8.642;2024-02-26T07:02:48;0.60;;;0.60;;
86172;SDS011;76822;46.880;8.642;2024-02-26T07:06:08;0.50;;;0.50;;
86172;SDS011;76822;46.880;8.642;2024-02-26T07:09:29;0.60;;;0.60;;
86172;SDS011;76822;46.880;8.642;2024-02-26T07:12:49;0.53;;;0.53;;
86172;SDS011;76822;46.880;8.642;2024-02-26T07:16:10;1.40;;;0.60;;
86172;SDS011;76822;46.880;8.642;2024-02-26T07:19:30;0.70;;;0.70;;
86172;SDS011;76822;46.880;8.642;2024-02-26T07:22:51;0.70;;;0.70;;
86172;SDS011;76822;46.880;8.642;2024-02-26T07:26:11;0.60;;;0.60;;
86172;SDS011;76822;46.880;8.642;2024-02-26T07:29:32;0.70;;;0.70;;
86172;SDS011;76822;46.880;8.642;2024-02-26T07:32:53;0.60;;;0.60;;
86172;SDS011;76822;46.880;8.642;2024-02-26T07:36:13;0.50;;;0.50;;
86172;SDS011;76822;46.880;8.642;2024-02-26T07:39:34;0.60;;;0.60;;
86172;SDS011;76822;46.880;8.642;2024-02-26T07:42:54;2.53;;;0.73;;
86172;SDS011;76822;46.880;8.642;2024-02-26T07:46:14;0.60;;;0.60;;
86172;SDS011;76822;46.880;8.642;2024-02-26T07:49:35;0.53;;;0.53;;
86172;SDS011;76822;46.880;8.642;2024-02-26T07:52:55;0.50;;;0.50;;
86172;SDS011;76822;46.880;8.642;2024-02-26T07:56:15;0.50;;;0.50;;
86172;SDS011;76822;46.880;8.642;2024-02-26T07:59:36;0.50;;;0.50;;
86172;SDS011;76822;46.880;8.642;2024-02-26T08:02:57;0.60;;;0.60;;
86172;SDS011;76822;46.880;8.642;2024-02-26T08:06:18;0.60;;;0.60;;
86172;SDS011;76822;46.880;8.642;2024-02-26T08:09:38;0.40;;;0.40;;
86172;SDS011;76822;46.880;8.642;2024-02-26T08:12:59;1.17;;;0.73;;
86172;SDS011;76822;46.880;8.642;2024-02-26T08:20:01;0.93;;;0.63;;
86172;SDS011;76822;46.880;8.642;2024-02-26T08:23:22;2.00;;;0.70;;
86172;SDS011;76822;46.880;8.642;2024-02-26T10:00:26;7.97;;;3.22;;
86172;SDS011;76822;46.880;8.642;2024-02-26T10:34:48;34.33;;;9.80;;
86172;SDS011;76822;46.880;8.642;2024-02-26T10:38:09;47.13;;;11.32;;
86172;SDS011;76822;46.880;8.642;2024-02-26T10:41:29;35.85;;;10.85;;
86172;SDS011;76822;46.880;8.642;2024-02-26T10:48:35;29.65;;;8.98;;
86172;SDS011;76822;46.880;8.642;2024-02-26T10:51:56;48.22;;;11.93;;
86172;SDS011;76822;46.880;8.642;2024-02-26T11:01:52;39.25;;;10.52;;
86172;SDS011;76822;46.880;8.642;2024-02-26T11:08:36;115.95;;;54.85;;
86172;SDS011;76822;46.880;8.642;2024-02-26T11:11:57;120.00;;;50.40;;
86172;SDS011;76822;46.880;8.642;2024-02-26T11:15:19;126.50;;;49.90;;
86172;SDS011;76822;46.880;8.642;2024-02-26T11:18:40;158.70;;;54.37;;
86172;SDS011;76822;46.880;8.642;2024-02-26T11:22:01;127.90;;;50.07;;
86172;SDS011;76822;46.880;8.642;2024-02-26T11:25:22;89.00;;;43.70;;
86172;SDS011;76822;46.880;8.642;2024-02-26T11:28:43;104.20;;;45.77;;
86172;SDS011;76822;46.880;8.642;2024-02-26T11:32:05;116.60;;;47.30;;
86172;SDS011;76822;46.880;8.642;2024-02-26T11:35:26;86.40;;;42.97;;
86172;SDS011;76822;46.880;8.642;2024-02-26T11:38:48;141.00;;;50.17;;
86172;SDS011;76822;46.880;8.642;2024-02-26T11:42:14;165.10;;;53.23;;
86172;SDS011;76822;46.880;8.642;2024-02-26T11:49:00;99.13;;;43.97;;
86172;SDS011;76822;46.880;8.642;2024-02-26T11:53:18;133.53;;;48.77;;
86172;SDS011;76822;46.880;8.642;2024-02-26T11:56:42;133.13;;;49.17;;
86172;SDS011;76822;46.880;8.642;2024-02-26T12:03:27;60.57;;;39.77;;
86172;SDS011;76822;46.880;8.642;2024-02-26T12:06:52;90.90;;;43.47;;
86172;SDS011;76822;46.880;8.642;2024-02-26T12:10:26;110.97;;;45.20;;
86172;SDS011;76822;46.880;8.642;2024-02-26T12:13:48;166.77;;;53.70;;
86172;SDS011;76822;46.880;8.642;2024-02-26T12:17:18;137.60;;;48.67;;
86172;SDS011;76822;46.880;8.642;2024-02-26T12:20:40;124.07;;;47.73;;
86172;SDS011;76822;46.880;8.642;2024-02-26T12:24:10;170.37;;;54.10;;
86172;SDS011;76822;46.880;8.642;2024-02-26T12:27:32;158.67;;;52.60;;
86172;SDS011;76822;46.880;8.642;2024-02-26T12:30:53;104.57;;;44.63;;
86172;SDS011;76822;46.880;8.642;2024-02-26T12:34:13;165.47;;;53.73;;
86172;SDS011;76822;46.880;8.642;2024-02-26T12:37:34;105.33;;;43.87;;
86172;SDS011;76822;46.880;8.642;2024-02-26T12:40:57;132.63;;;47.20;;
86172;SDS011;76822;46.880;8.642;2024-02-26T12:44:18;118.10;;;46.17;;
86172;SDS011;76822;46.880;8.642;2024-02-26T12:47:45;73.27;;;39.83;;
86172;SDS011;76822;46.880;8.642;2024-02-26T12:51:06;114.90;;;45.90;;
86172;SDS011;76822;46.880;8.642;2024-02-26T12:54:30;122.53;;;46.10;;
86172;SDS011;76822;46.880;8.642;2024-02-26T12:57:52;100.77;;;44.00;;
86172;SDS011;76822;46.880;8.642;2024-02-26T13:01:15;111.90;;;44.60;;
86172;SDS011;76822;46.880;8.642;2024-02-26T13:04:38;122.80;;;46.17;;
86172;SDS011;76822;46.880;8.642;2024-02-26T13:07:59;79.33;;;40.80;;
86172;SDS011;76822;46.880;8.642;2024-02-26T13:11:19;134.10;;;47.67;;
86172;SDS011;76822;46.880;8.642;2024-02-26T13:14:40;110.43;;;44.40;;
86172;SDS011;76822;46.880;8.642;2024-02-26T13:18:08;152.13;;;50.83;;
86172;SDS011;76822;46.880;8.642;2024-02-26T13:21:33;169.67;;;54.10;;
86172;SDS011;76822;46.880;8.642;2024-02-26T13:24:54;93.20;;;42.97;;
86172;SDS011;76822;46.880;8.642;2024-02-26T13:28:16;127.67;;;48.20;;
86172;SDS011;76822;46.880;8.642;2024-02-26T13:31:39;85.20;;;41.60;;
86172;SDS011;76822;46.880;8.642;2024-02-26T13:35:09;92.60;;;42.40;;
86172;SDS011;76822;46.880;8.642;2024-02-26T13:38:31;83.80;;;41.53;;
86172;SDS011;76822;46.880;8.642;2024-02-26T13:41:52;112.23;;;45.77;;
86172;SDS011;76822;46.880;8.642;2024-02-26T13:45:13;166.80;;;52.97;;
86172;SDS011;76822;46.880;8.642;2024-02-26T13:48:33;86.47;;;41.77;;
86172;SDS011;76822;46.880;8.642;2024-02-26T13:51:53;124.60;;;47.00;;
86172;SDS011;76822;46.880;8.642;2024-02-26T13:55:14;152.37;;;51.33;;
86172;SDS011;76822;46.880;8.642;2024-02-26T13:58:34;93.80;;;42.93;;
86172;SDS011;76822;46.880;8.642;2024-02-26T14:01:55;92.43;;;43.07;;
86172;SDS011;76822;46.880;8.642;2024-02-26T14:05:16;118.47;;;46.53;;
86172;SDS011;76822;46.880;8.642;2024-02-26T14:08:36;133.70;;;48.23;;
86172;SDS011;76822;46.880;8.642;2024-02-26T14:11:57;166.33;;;52.57;;
86172;SDS011;76822;46.880;8.642;2024-02-26T14:15:21;109.03;;;44.83;;
86172;SDS011;76822;46.880;8.642;2024-02-26T14:18:41;77.37;;;41.03;;
86172;SDS011;76822;46.880;8.642;2024-02-26T14:22:04;113.33;;;46.50;;
86172;SDS011;76822;46.880;8.642;2024-02-26T14:25:24;108.90;;;45.17;;
86172;SDS011;76822;46.880;8.642;2024-02-26T14:28:45;113.17;;;45.43;;
86172;SDS011;76822;46.880;8.642;2024-02-26T14:32:06;97.63;;;43.40;;
86172;SDS011;76822;46.880;8.642;2024-02-26T14:35:27;107.50;;;44.23;;
86172;SDS011;76822;46.880;8.642;2024-02-26T14:38:48;104.37;;;44.00;;
86172;SDS011;76822;46.880;8.642;2024-02-26T14:42:08;151.00;;;50.93;;
86172;SDS011;76822;46.880;8.642;2024-02-26T14:45:29;89.63;;;42.33;;
86172;SDS011;76822;46.880;8.642;2024-02-26T14:48:49;93.30;;;42.77;;
86172;SDS011;76822;46.880;8.642;2024-02-26T14:52:09;124.93;;;46.47;;
86172;SDS011;76822;46.880;8.642;2024-02-26T14:55:30;143.00;;;49.83;;
86172;SDS011;76822;46.880;8.642;2024-02-26T14:58:50;120.13;;;46.23;;
86172;SDS011;76822;46.880;8.642;2024-02-26T15:02:11;119.13;;;46.00;;
86172;SDS011;76822;46.880;8.642;2024-02-26T15:05:32;163.27;;;51.10;;
86172;SDS011;76822;46.880;8.642;2024-02-26T15:08:52;131.63;;;46.63;;
86172;SDS011;76822;46.880;8.642;2024-02-26T15:12:13;101.80;;;43.20;;
86172;SDS011;76822;46.880;8.642;2024-02-26T15:15:33;111.60;;;44.87;;
86172;SDS011;76822;46.880;8.642;2024-02-26T15:18:54;93.90;;;42.27;;
86172;SDS011;76822;46.880;8.642;2024-02-26T15:22:14;127.77;;;47.87;;
86172;SDS011;76822;46.880;8.642;2024-02-26T15:25:35;125.20;;;45.60;;
86172;SDS011;76822;46.880;8.642;2024-02-26T15:28:56;82.43;;;40.67;;
86172;SDS011;76822;46.880;8.642;2024-02-26T15:32:16;103.53;;;43.53;;
86172;SDS011;76822;46.880;8.642;2024-02-26T15:35:36;131.97;;;47.33;;
86172;SDS011;76822;46.880;8.642;2024-02-26T15:38:57;126.37;;;46.50;;
86172;SDS011;76822;46.880;8.642;2024-02-26T15:42:18;153.97;;;50.83;;
86172;SDS011;76822;46.880;8.642;2024-02-26T15:45:38;131.00;;;47.07;;
86172;SDS011;76822;46.880;8.642;2024-02-26T15:48:59;95.17;;;42.30;;
86172;SDS011;76822;46.880;8.642;2024-02-26T15:52:19;203.57;;;57.67;;
86172;SDS011;76822;46.880;8.642;2024-02-26T15:55:41;172.10;;;52.07;;
86172;SDS011;76822;46.880;8.642;2024-02-26T15:59:02;83.30;;;40.87;;
86172;SDS011;76822;46.880;8.642;2024-02-26T16:02:23;167.03;;;53.97;;
86172;SDS011;76822;46.880;8.642;2024-02-26T16:05:43;111.60;;;45.03;;
86172;SDS011;76822;46.880;8.642;2024-02-26T16:09:04;132.03;;;47.73;;
86172;SDS011;76822;46.880;8.642;2024-02-26T16:12:35;168.17;;;53.30;;
86172;SDS011;76822;46.880;8.642;2024-02-26T16:16:03;152.37;;;49.80;;
86172;SDS011;76822;46.880;8.642;2024-02-26T16:19:28;193.40;;;56.53;;
86172;SDS011;76822;46.880;8.642;2024-02-26T16:22:49;121.57;;;45.80;;
86172;SDS011;76822;46.880;8.642;2024-02-26T16:26:09;147.17;;;49.43;;
86172;SDS011;76822;46.880;8.642;2024-02-26T16:29:30;140.87;;;49.30;;
86172;SDS011;76822;46.880;8.642;2024-02-26T16:32:50;144.30;;;49.47;;
86172;SDS011;76822;46.880;8.642;2024-02-26T16:36:10;127.20;;;46.63;;
86172;SDS011;76822;46.880;8.642;2024-02-26T16:39:34;214.90;;;58.87;;
86172;SDS011;76822;46.880;8.642;2024-02-26T16:42:56;124.73;;;46.53;;
86172;SDS011;76822;46.880;8.642;2024-02-26T16:46:17;147.97;;;48.53;;
86172;SDS011;76822;46.880;8.642;2024-02-26T16:49:38;133.83;;;48.87;;
86172;SDS011;76822;46.880;8.642;2024-02-26T16:52:58;124.43;;;46.37;;
86172;SDS011;76822;46.880;8.642;2024-02-26T16:56:19;70.83;;;39.37;;
86172;SDS011;76822;46.880;8.642;2024-02-26T16:59:39;96.80;;;42.53;;
86172;SDS011;76822;46.880;8.642;2024-02-26T17:03:00;144.13;;;49.70;;
86172;SDS011;76822;46.880;8.642;2024-02-26T17:06:20;111.07;;;44.37;;
86172;SDS011;76822;46.880;8.642;2024-02-26T17:09:44;109.97;;;44.63;;
86172;SDS011;76822;46.880;8.642;2024-02-26T17:13:04;137.70;;;48.67;;
86172;SDS011;76822;46.880;8.642;2024-02-26T17:16:25;147.53;;;48.63;;
86172;SDS011;76822;46.880;8.642;2024-02-26T17:19:45;58.97;;;37.77;;
86172;SDS011;76822;46.880;8.642;2024-02-26T17:23:06;116.73;;;45.70;;
86172;SDS011;76822;46.880;8.642;2024-02-26T17:26:26;92.57;;;42.40;;
86172;SDS011;76822;46.880;8.642;2024-02-26T17:29:47;94.77;;;41.73;;
86172;SDS011;76822;46.880;8.642;2024-02-26T17:33:08;108.93;;;44.67;;
86172;SDS011;76822;46.880;8.642;2024-02-26T17:36:28;89.03;;;40.83;;
86172;SDS011;76822;46.880;8.642;2024-02-26T17:39:48;147.27;;;49.30;;
86172;SDS011;76822;46.880;8.642;2024-02-26T17:43:09;129.80;;;46.87;;
86172;SDS011;76822;46.880;8.642;2024-02-26T17:46:29;136.53;;;49.17;;
86172;SDS011;76822;46.880;8.642;2024-02-26T17:49:50;111.60;;;43.93;;
86172;SDS011;76822;46.880;8.642;2024-02-26T17:53:10;150.10;;;49.83;;
86172;SDS011;76822;46.880;8.642;2024-02-26T17:56:34;116.50;;;45.30;;
86172;SDS011;76822;46.880;8.642;2024-02-26T17:59:55;76.77;;;39.77;;
86172;SDS011;76822;46.880;8.642;2024-02-26T18:03:15;107.93;;;44.37;;
86172;SDS011;76822;46.880;8.642;2024-02-26T18:06:38;129.23;;;47.17;;
86172;SDS011;76822;46.880;8.642;2024-02-26T18:09:59;126.03;;;46.23;;
86172;SDS011;76822;46.880;8.642;2024-02-26T18:13:21;141.33;;;48.90;;
86172;SDS011;76822;46.880;8.642;2024-02-26T18:16:41;155.30;;;50.40;;
86172;SDS011;76822;46.880;8.642;2024-02-26T18:20:02;114.30;;;45.10;;
86172;SDS011;76822;46.880;8.642;2024-02-26T18:23:24;127.60;;;47.20;;
86172;SDS011;76822;46.880;8.642;2024-02-26T18:26:45;105.07;;;43.63;;
86172;SDS011;76822;46.880;8.642;2024-02-26T18:30:05;150.23;;;51.17;;
86172;SDS011;76822;46.880;8.642;2024-02-26T18:33:26;94.30;;;42.47;;
86172;SDS011;76822;46.880;8.642;2024-02-26T18:36:46;90.47;;;42.20;;
86172;SDS011;76822;46.880;8.642;2024-02-26T18:40:07;99.30;;;44.10;;
86172;SDS011;76822;46.880;8.642;2024-02-26T18:43:28;125.10;;;46.47;;
86172;SDS011;76822;46.880;8.642;2024-02-26T18:46:49;90.10;;;41.97;;
86172;SDS011;76822;46.880;8.642;2024-02-26T18:50:10;105.27;;;43.70;;
86172;SDS011;76822;46.880;8.642;2024-02-26T18:53:30;122.93;;;47.07;;
86172;SDS011;76822;46.880;8.642;2024-02-26T18:56:51;126.07;;;47.67;;
86172;SDS011;76822;46.880;8.642;2024-02-26T19:00:11;90.00;;;41.77;;
86172;SDS011;76822;46.880;8.642;2024-02-26T19:03:32;113.40;;;45.17;;
86172;SDS011;76822;46.880;8.642;2024-02-26T19:06:53;87.13;;;41.40;;
86172;SDS011;76822;46.880;8.642;2024-02-26T19:10:14;109.73;;;44.17;;
86172;SDS011;76822;46.880;8.642;2024-02-26T19:13:34;117.50;;;45.90;;
86172;SDS011;76822;46.880;8.642;2024-02-26T19:16:54;94.67;;;42.80;;
86172;SDS011;76822;46.880;8.642;2024-02-26T19:20:15;172.53;;;52.83;;
86172;SDS011;76822;46.880;8.642;2024-02-26T19:23:38;114.83;;;44.83;;
86172;SDS011;76822;46.880;8.642;2024-02-26T19:26:58;111.50;;;44.43;;
86172;SDS011;76822;46.880;8.642;2024-02-26T19:30:19;107.20;;;43.37;;
86172;SDS011;76822;46.880;8.642;2024-02-26T19:33:39;126.83;;;46.80;;
86172;SDS011;76822;46.880;8.642;2024-02-26T19:37:00;107.83;;;44.73;;
86172;SDS011;76822;46.880;8.642;2024-02-26T19:40:23;161.53;;;53.10;;
86172;SDS011;76822;46.880;8.642;2024-02-26T19:43:43;124.87;;;46.47;;
86172;SDS011;76822;46.880;8.642;2024-02-26T19:47:04;104.17;;;44.57;;
86172;SDS011;76822;46.880;8.642;2024-02-26T19:50:24;201.30;;;57.60;;
86172;SDS011;76822;46.880;8.642;2024-02-26T19:53:45;148.07;;;50.33;;
86172;SDS011;76822;46.880;8.642;2024-02-26T19:57:06;162.00;;;54.33;;
86172;SDS011;76822;46.880;8.642;2024-02-26T20:00:27;129.50;;;48.27;;
86172;SDS011;76822;46.880;8.642;2024-02-26T20:03:47;130.57;;;47.07;;
86172;SDS011;76822;46.880;8.642;2024-02-26T20:07:07;104.20;;;43.43;;
86172;SDS011;76822;46.880;8.642;2024-02-26T20:10:28;128.97;;;46.63;;
86172;SDS011;76822;46.880;8.642;2024-02-26T20:13:48;98.93;;;43.50;;
86172;SDS011;76822;46.880;8.642;2024-02-26T20:17:09;101.50;;;43.40;;
86172;SDS011;76822;46.880;8.642;2024-02-26T20:20:30;109.73;;;44.60;;
86172;SDS011;76822;46.880;8.642;2024-02-26T20:23:51;137.53;;;48.47;;
86172;SDS011;76822;46.880;8.642;2024-02-26T20:27:11;104.17;;;44.03;;
86172;SDS011;76822;46.880;8.642;2024-02-26T20:30:31;98.40;;;42.83;;
86172;SDS011;76822;46.880;8.642;2024-02-26T20:33:53;116.10;;;45.67;;
86172;SDS011;76822;46.880;8.642;2024-02-26T20:37:13;105.27;;;44.70;;
86172;SDS011;76822;46.880;8.642;2024-02-26T20:40:35;172.90;;;53.70;;
86172;SDS011;76822;46.880;8.642;2024-02-26T20:43:56;93.33;;;42.77;;
86172;SDS011;76822;46.880;8.642;2024-02-26T20:47:17;145.40;;;49.07;;
86172;SDS011;76822;46.880;8.642;2024-02-26T20:50:38;129.50;;;47.33;;
86172;SDS011;76822;46.880;8.642;2024-02-26T20:53:58;84.33;;;41.27;;
86172;SDS011;76822;46.880;8.642;2024-02-26T20:57:19;78.73;;;40.57;;
86172;SDS011;76822;46.880;8.642;2024-02-26T21:00:40;69.57;;;39.40;;
86172;SDS011;76822;46.880;8.642;2024-02-26T21:04:02;146.17;;;48.67;;
86172;SDS011;76822;46.880;8.642;2024-02-26T21:07:23;86.10;;;40.90;;
86172;SDS011;76822;46.880;8.642;2024-02-26T21:10:43;82.50;;;40.37;;
86172;SDS011;76822;46.880;8.642;2024-02-26T21:14:08;100.17;;;42.77;;
86172;SDS011;76822;46.880;8.642;2024-02-26T21:17:28;173.27;;;53.17;;
86172;SDS011;76822;46.880;8.642;2024-02-26T21:20:48;135.17;;;47.03;;
86172;SDS011;76822;46.880;8.642;2024-02-26T21:24:09;158.00;;;52.57;;
86172;SDS011;76822;46.880;8.642;2024-02-26T21:27:30;114.73;;;45.00;;
86172;SDS011;76822;46.880;8.642;2024-02-26T21:30:50;116.93;;;45.63;;
86172;SDS011;76822;46.880;8.642;2024-02-26T21:34:16;121.87;;;46.70;;
86172;SDS011;76822;46.880;8.642;2024-02-26T21:37:37;144.37;;;50.50;;
86172;SDS011;76822;46.880;8.642;2024-02-26T21:40:57;99.10;;;44.40;;
86172;SDS011;76822;46.880;8.642;2024-02-26T21:44:17;126.33;;;48.03;;
86172;SDS011;76822;46.880;8.642;2024-02-26T21:47:38;84.90;;;41.83;;
86172;SDS011;76822;46.880;8.642;2024-02-26T21:50:58;124.67;;;47.73;;
86172;SDS011;76822;46.880;8.642;2024-02-26T21:54:21;88.60;;;42.27;;
86172;SDS011;76822;46.880;8.642;2024-02-26T21:57:43;183.33;;;55.17;;
86172;SDS011;76822;46.880;8.642;2024-02-26T22:01:03;193.63;;;58.23;;
86172;SDS011;76822;46.880;8.642;2024-02-26T22:04:24;122.20;;;47.80;;
86172;SDS011;76822;46.880;8.642;2024-02-26T22:07:44;96.17;;;43.43;;
86172;SDS011;76822;46.880;8.642;2024-02-26T22:11:05;132.27;;;49.43;;
86172;SDS011;76822;46.880;8.642;2024-02-26T22:14:25;114.27;;;47.00;;